Salomonia, Indiana
Current Conditions -  °F | °C
As of 1:55 AM on Thursday 27 Nov 2014 (Local Time) from KVES Reporting Station
Overcast Overcast  
Wind Chill: -7°   Ceiling: 2700
Heat Index: -2°   Visibility: 10mi
Dew Point: -2°   Wind: 9mph
Humidity: 100%   Direction: 350°N
Pressure: 30.07"   Gusts: NA
Location:  40.3534°N, 84.8526°W
Report Text: KVES 270655Z AUTO 35008KT 10SM OVC027 M02/M02 A3007 RMK AO2
Loading
Personal Weather Stations






























Interactive Weather Map New forecast layout! Learn more

10-Day Weather Forecast

Advertisements
Track Severe Weather on mobile